sensor_id;sensor_type;location;lat;lon;timestamp;temperature;humidity
13694;DHT22;6919;52.344;14.518;2022-07-04T00:01:32;21.40;1.00
13694;DHT22;6919;52.344;14.518;2022-07-04T00:04:00;21.40;1.00
13694;DHT22;6919;52.344;14.518;2022-07-04T00:06:29;21.40;1.00
13694;DHT22;6919;52.344;14.518;2022-07-04T00:08:57;21.40;1.00
13694;DHT22;6919;52.344;14.518;2022-07-04T00:11:25;21.30;1.00
13694;DHT22;6919;52.344;14.518;2022-07-04T00:13:53;21.30;1.00
13694;DHT22;6919;52.344;14.518;2022-07-04T00:16:21;21.30;1.00
13694;DHT22;6919;52.344;14.518;2022-07-04T00:18:51;21.40;1.00
13694;DHT22;6919;52.344;14.518;2022-07-04T00:21:20;21.40;1.00
13694;DHT22;6919;52.344;14.518;2022-07-04T00:23:48;21.40;1.00
13694;DHT22;6919;52.344;14.518;2022-07-04T00:26:16;21.40;1.00
13694;DHT22;6919;52.344;14.518;2022-07-04T00:28:45;21.40;1.00
13694;DHT22;6919;52.344;14.518;2022-07-04T00:31:13;21.40;1.00
13694;DHT22;6919;52.344;14.518;2022-07-04T00:33:41;21.30;1.00
13694;DHT22;6919;52.344;14.518;2022-07-04T00:36:11;21.40;30.90
13694;DHT22;6919;52.344;14.518;2022-07-04T00:38:39;21.40;99.90
13694;DHT22;6919;52.344;14.518;2022-07-04T00:41:07;21.30;99.90
13694;DHT22;6919;52.344;14.518;2022-07-04T00:43:35;21.30;99.90
13694;DHT22;6919;52.344;14.518;2022-07-04T00:46:23;21.20;99.90
13694;DHT22;6919;52.344;14.518;2022-07-04T00:48:52;21.10;1.00
13694;DHT22;6919;52.344;14.518;2022-07-04T00:51:22;21.10;1.00
13694;DHT22;6919;52.344;14.518;2022-07-04T00:53:52;21.10;72.90
13694;DHT22;6919;52.344;14.518;2022-07-04T00:56:22;21.20;1.00
13694;DHT22;6919;52.344;14.518;2022-07-04T00:58:52;21.10;99.90
13694;DHT22;6919;52.344;14.518;2022-07-04T01:01:21;21.10;59.30
13694;DHT22;6919;52.344;14.518;2022-07-04T01:03:49;21.10;99.90
13694;DHT22;6919;52.344;14.518;2022-07-04T01:06:20;21.00;1.00
13694;DHT22;6919;52.344;14.518;2022-07-04T01:08:49;20.90;1.00
13694;DHT22;6919;52.344;14.518;2022-07-04T01:11:17;20.90;1.00
13694;DHT22;6919;52.344;14.518;2022-07-04T01:13:46;20.80;1.00
13694;DHT22;6919;52.344;14.518;2022-07-04T01:16:15;20.80;1.00
13694;DHT22;6919;52.344;14.518;2022-07-04T01:18:43;20.70;50.70
13694;DHT22;6919;52.344;14.518;2022-07-04T01:21:13;20.60;1.00
13694;DHT22;6919;52.344;14.518;2022-07-04T01:23:41;20.60;1.00
13694;DHT22;6919;52.344;14.518;2022-07-04T01:26:09;20.40;1.00
13694;DHT22;6919;52.344;14.518;2022-07-04T01:28:38;20.30;99.90
13694;DHT22;6919;52.344;14.518;2022-07-04T01:31:07;20.30;99.90
13694;DHT22;6919;52.344;14.518;2022-07-04T01:33:35;20.20;99.90
13694;DHT22;6919;52.344;14.518;2022-07-04T01:36:03;20.10;99.90
13694;DHT22;6919;52.344;14.518;2022-07-04T01:38:33;20.10;1.00
13694;DHT22;6919;52.344;14.518;2022-07-04T01:41:01;20.00;99.90
13694;DHT22;6919;52.344;14.518;2022-07-04T01:43:30;20.00;96.60
13694;DHT22;6919;52.344;14.518;2022-07-04T01:45:58;20.00;37.70
13694;DHT22;6919;52.344;14.518;2022-07-04T01:48:26;20.00;1.00
13694;DHT22;6919;52.344;14.518;2022-07-04T01:50:54;20.00;1.00
13694;DHT22;6919;52.344;14.518;2022-07-04T01:53:23;20.00;1.00
13694;DHT22;6919;52.344;14.518;2022-07-04T01:55:52;20.00;1.00
13694;DHT22;6919;52.344;14.518;2022-07-04T01:58:20;20.00;99.90
13694;DHT22;6919;52.344;14.518;2022-07-04T02:00:49;20.00;1.00
13694;DHT22;6919;52.344;14.518;2022-07-04T02:03:34;20.00;26.40
13694;DHT22;6919;52.344;14.518;2022-07-04T02:06:04;20.00;99.90
13694;DHT22;6919;52.344;14.518;2022-07-04T02:08:32;20.00;99.90
13694;DHT22;6919;52.344;14.518;2022-07-04T02:11:15;20.10;99.90
13694;DHT22;6919;52.344;14.518;2022-07-04T02:13:44;20.10;1.00
13694;DHT22;6919;52.344;14.518;2022-07-04T02:16:11;20.00;99.90
13694;DHT22;6919;52.344;14.518;2022-07-04T02:18:39;20.00;99.90
13694;DHT22;6919;52.344;14.518;2022-07-04T02:21:07;19.90;1.00
13694;DHT22;6919;52.344;14.518;2022-07-04T02:23:35;19.90;58.40
13694;DHT22;6919;52.344;14.518;2022-07-04T02:26:04;19.90;99.90
13694;DHT22;6919;52.344;14.518;2022-07-04T02:28:33;19.90;99.90
13694;DHT22;6919;52.344;14.518;2022-07-04T02:31:02;19.90;99.90
13694;DHT22;6919;52.344;14.518;2022-07-04T02:33:30;19.80;99.90
13694;DHT22;6919;52.344;14.518;2022-07-04T02:35:58;19.80;1.00
13694;DHT22;6919;52.344;14.518;2022-07-04T02:38:27;19.90;71.20
13694;DHT22;6919;52.344;14.518;2022-07-04T02:40:55;19.90;1.00
13694;DHT22;6919;52.344;14.518;2022-07-04T02:43:24;19.90;99.90
13694;DHT22;6919;52.344;14.518;2022-07-04T02:45:54;20.00;1.00
13694;DHT22;6919;52.344;14.518;2022-07-04T02:48:22;20.00;99.90
13694;DHT22;6919;52.344;14.518;2022-07-04T02:50:50;20.00;99.90
13694;DHT22;6919;52.344;14.518;2022-07-04T02:53:18;19.90;1.00
13694;DHT22;6919;52.344;14.518;2022-07-04T02:55:47;20.00;1.00
13694;DHT22;6919;52.344;14.518;2022-07-04T02:58:15;19.90;99.90
13694;DHT22;6919;52.344;14.518;2022-07-04T03:00:43;19.90;1.00
13694;DHT22;6919;52.344;14.518;2022-07-04T03:03:13;19.80;1.00
13694;DHT22;6919;52.344;14.518;2022-07-04T03:05:41;19.80;99.90
13694;DHT22;6919;52.344;14.518;2022-07-04T03:08:09;19.80;99.90
13694;DHT22;6919;52.344;14.518;2022-07-04T03:10:38;19.80;99.90
13694;DHT22;6919;52.344;14.518;2022-07-04T03:13:06;19.80;99.90
13694;DHT22;6919;52.344;14.518;2022-07-04T03:15:34;19.80;99.90
13694;DHT22;6919;52.344;14.518;2022-07-04T03:18:02;19.70;1.00
13694;DHT22;6919;52.344;14.518;2022-07-04T03:20:32;19.70;1.00
13694;DHT22;6919;52.344;14.518;2022-07-04T03:23:00;19.80;1.00
13694;DHT22;6919;52.344;14.518;2022-07-04T03:25:28;19.70;1.00
13694;DHT22;6919;52.344;14.518;2022-07-04T03:27:56;19.70;1.00
13694;DHT22;6919;52.344;14.518;2022-07-04T03:30:25;19.60;1.00
13694;DHT22;6919;52.344;14.518;2022-07-04T03:32:53;19.60;1.00
13694;DHT22;6919;52.344;14.518;2022-07-04T03:35:21;19.60;1.00
13694;DHT22;6919;52.344;14.518;2022-07-04T03:37:51;19.60;1.00
13694;DHT22;6919;52.344;14.518;2022-07-04T03:40:20;19.50;1.00
13694;DHT22;6919;52.344;14.518;2022-07-04T03:42:49;19.40;1.00
13694;DHT22;6919;52.344;14.518;2022-07-04T03:45:17;19.30;1.00
13694;DHT22;6919;52.344;14.518;2022-07-04T03:47:45;19.20;1.00
13694;DHT22;6919;52.344;14.518;2022-07-04T03:50:13;19.20;1.00
13694;DHT22;6919;52.344;14.518;2022-07-04T03:52:42;19.20;1.00
13694;DHT22;6919;52.344;14.518;2022-07-04T03:55:11;19.20;1.00
13694;DHT22;6919;52.344;14.518;2022-07-04T03:57:40;19.20;1.00
13694;DHT22;6919;52.344;14.518;2022-07-04T04:00:09;19.20;1.00
13694;DHT22;6919;52.344;14.518;2022-07-04T04:02:38;19.20;1.00
13694;DHT22;6919;52.344;14.518;2022-07-04T04:05:13;19.30;1.00
13694;DHT22;6919;52.344;14.518;2022-07-04T04:07:58;19.30;3.10
13694;DHT22;6919;52.344;14.518;2022-07-04T04:10:31;19.20;9.70
13694;DHT22;6919;52.344;14.518;2022-07-04T04:12:59;19.20;10.80
13694;DHT22;6919;52.344;14.518;2022-07-04T04:15:27;19.30;9.30
13694;DHT22;6919;52.344;14.518;2022-07-04T04:17:55;19.30;9.30
13694;DHT22;6919;52.344;14.518;2022-07-04T04:20:24;19.30;15.20
13694;DHT22;6919;52.344;14.518;2022-07-04T04:22:52;19.40;16.10
13694;DHT22;6919;52.344;14.518;2022-07-04T04:25:20;19.40;17.60
13694;DHT22;6919;52.344;14.518;2022-07-04T04:27:50;19.50;12.30
13694;DHT22;6919;52.344;14.518;2022-07-04T04:30:19;19.60;1.00
13694;DHT22;6919;52.344;14.518;2022-07-04T04:32:47;19.80;1.00
13694;DHT22;6919;52.344;14.518;2022-07-04T04:35:15;19.80;1.00
13694;DHT22;6919;52.344;14.518;2022-07-04T04:37:43;20.00;1.00
13694;DHT22;6919;52.344;14.518;2022-07-04T04:40:12;20.10;1.00
13694;DHT22;6919;52.344;14.518;2022-07-04T04:42:41;20.30;1.00
13694;DHT22;6919;52.344;14.518;2022-07-04T04:45:11;20.50;1.00
13694;DHT22;6919;52.344;14.518;2022-07-04T04:47:39;20.50;1.00
13694;DHT22;6919;52.344;14.518;2022-07-04T04:50:09;20.50;1.00
13694;DHT22;6919;52.344;14.518;2022-07-04T04:52:39;20.70;1.00
13694;DHT22;6919;52.344;14.518;2022-07-04T04:55:07;20.70;1.00
13694;DHT22;6919;52.344;14.518;2022-07-04T04:57:36;20.70;1.00
13694;DHT22;6919;52.344;14.518;2022-07-04T05:00:05;20.90;1.00
13694;DHT22;6919;52.344;14.518;2022-07-04T05:02:35;20.90;1.00
13694;DHT22;6919;52.344;14.518;2022-07-04T05:05:05;21.20;1.00
13694;DHT22;6919;52.344;14.518;2022-07-04T05:07:33;21.20;1.00
13694;DHT22;6919;52.344;14.518;2022-07-04T05:10:02;21.40;1.00
13694;DHT22;6919;52.344;14.518;2022-07-04T05:12:31;21.50;99.90
13694;DHT22;6919;52.344;14.518;2022-07-04T05:15:06;21.70;99.90
13694;DHT22;6919;52.344;14.518;2022-07-04T05:17:36;22.00;1.00
13694;DHT22;6919;52.344;14.518;2022-07-04T05:20:05;22.00;1.00
13694;DHT22;6919;52.344;14.518;2022-07-04T05:22:34;22.20;1.00
13694;DHT22;6919;52.344;14.518;2022-07-04T05:25:03;22.10;1.00
13694;DHT22;6919;52.344;14.518;2022-07-04T05:27:33;22.00;99.90
13694;DHT22;6919;52.344;14.518;2022-07-04T05:30:01;22.20;99.90
13694;DHT22;6919;52.344;14.518;2022-07-04T05:32:30;22.30;99.90
13694;DHT22;6919;52.344;14.518;2022-07-04T05:34:59;22.20;1.00
13694;DHT22;6919;52.344;14.518;2022-07-04T05:37:28;22.50;1.00
13694;DHT22;6919;52.344;14.518;2022-07-04T05:39:58;22.80;2.70
13694;DHT22;6919;52.344;14.518;2022-07-04T05:42:26;22.60;1.00
13694;DHT22;6919;52.344;14.518;2022-07-04T05:44:55;23.00;99.90
13694;DHT22;6919;52.344;14.518;2022-07-04T05:47:23;23.30;72.00
13694;DHT22;6919;52.344;14.518;2022-07-04T05:49:51;23.40;99.90
13694;DHT22;6919;52.344;14.518;2022-07-04T05:52:21;23.40;99.90
13694;DHT22;6919;52.344;14.518;2022-07-04T05:54:49;23.30;99.90
13694;DHT22;6919;52.344;14.518;2022-07-04T05:57:17;23.30;99.90
13694;DHT22;6919;52.344;14.518;2022-07-04T05:59:46;23.50;99.90
13694;DHT22;6919;52.344;14.518;2022-07-04T06:02:14;23.70;1.00
13694;DHT22;6919;52.344;14.518;2022-07-04T06:04:43;23.70;1.00
13694;DHT22;6919;52.344;14.518;2022-07-04T06:07:12;23.80;99.90
13694;DHT22;6919;52.344;14.518;2022-07-04T06:09:42;23.90;41.80
13694;DHT22;6919;52.344;14.518;2022-07-04T06:12:11;23.90;1.00
13694;DHT22;6919;52.344;14.518;2022-07-04T06:14:39;24.10;99.90
13694;DHT22;6919;52.344;14.518;2022-07-04T06:17:08;24.10;1.00
13694;DHT22;6919;52.344;14.518;2022-07-04T06:19:37;24.30;1.00
13694;DHT22;6919;52.344;14.518;2022-07-04T06:22:06;24.50;99.90
13694;DHT22;6919;52.344;14.518;2022-07-04T06:24:34;24.50;99.90
13694;DHT22;6919;52.344;14.518;2022-07-04T06:27:04;24.50;99.90
13694;DHT22;6919;52.344;14.518;2022-07-04T06:29:33;24.30;99.90
13694;DHT22;6919;52.344;14.518;2022-07-04T06:32:02;23.90;99.90
13694;DHT22;6919;52.344;14.518;2022-07-04T06:34:31;23.90;1.00
13694;DHT22;6919;52.344;14.518;2022-07-04T06:37:17;24.00;1.00
13694;DHT22;6919;52.344;14.518;2022-07-04T06:39:45;24.30;1.00
13694;DHT22;6919;52.344;14.518;2022-07-04T06:42:14;24.60;99.90
13694;DHT22;6919;52.344;14.518;2022-07-04T06:44:42;24.50;99.90
13694;DHT22;6919;52.344;14.518;2022-07-04T06:47:11;24.70;99.90
13694;DHT22;6919;52.344;14.518;2022-07-04T06:49:39;24.80;99.90
13694;DHT22;6919;52.344;14.518;2022-07-04T06:52:08;24.90;99.90
13694;DHT22;6919;52.344;14.518;2022-07-04T06:54:36;24.50;99.90
13694;DHT22;6919;52.344;14.518;2022-07-04T06:57:04;24.70;1.00
13694;DHT22;6919;52.344;14.518;2022-07-04T06:59:54;24.40;99.90
13694;DHT22;6919;52.344;14.518;2022-07-04T07:02:22;24.60;99.90
13694;DHT22;6919;52.344;14.518;2022-07-04T07:04:50;24.20;99.90
13694;DHT22;6919;52.344;14.518;2022-07-04T07:07:18;24.50;99.90
13694;DHT22;6919;52.344;14.518;2022-07-04T07:09:47;24.90;99.90
13694;DHT22;6919;52.344;14.518;2022-07-04T07:12:15;25.10;99.90
13694;DHT22;6919;52.344;14.518;2022-07-04T07:14:43;25.60;1.00
13694;DHT22;6919;52.344;14.518;2022-07-04T07:17:13;26.00;1.00
13694;DHT22;6919;52.344;14.518;2022-07-04T07:19:41;25.70;1.00
13694;DHT22;6919;52.344;14.518;2022-07-04T07:22:11;25.60;1.00
13694;DHT22;6919;52.344;14.518;2022-07-04T07:24:40;25.50;1.00
13694;DHT22;6919;52.344;14.518;2022-07-04T07:27:09;25.40;1.00
13694;DHT22;6919;52.344;14.518;2022-07-04T07:29:38;25.40;1.00
13694;DHT22;6919;52.344;14.518;2022-07-04T07:32:07;25.30;1.00
13694;DHT22;6919;52.344;14.518;2022-07-04T07:34:37;25.30;51.20
13694;DHT22;6919;52.344;14.518;2022-07-04T07:37:05;25.10;91.20
13694;DHT22;6919;52.344;14.518;2022-07-04T07:39:34;25.20;99.90
13694;DHT22;6919;52.344;14.518;2022-07-04T07:42:07;24.90;66.60
13694;DHT22;6919;52.344;14.518;2022-07-04T07:44:36;25.10;99.90
13694;DHT22;6919;52.344;14.518;2022-07-04T07:47:04;25.40;46.30
13694;DHT22;6919;52.344;14.518;2022-07-04T07:49:40;25.70;1.00
13694;DHT22;6919;52.344;14.518;2022-07-04T07:52:10;25.60;1.00
13694;DHT22;6919;52.344;14.518;2022-07-04T07:54:38;25.50;1.00
13694;DHT22;6919;52.344;14.518;2022-07-04T07:57:26;25.20;1.00
13694;DHT22;6919;52.344;14.518;2022-07-04T07:59:54;24.80;1.00
13694;DHT22;6919;52.344;14.518;2022-07-04T08:02:22;25.20;22.30
13694;DHT22;6919;52.344;14.518;2022-07-04T08:05:13;25.30;99.90
13694;DHT22;6919;52.344;14.518;2022-07-04T08:07:41;25.50;1.00
13694;DHT22;6919;52.344;14.518;2022-07-04T08:10:12;25.50;1.00
13694;DHT22;6919;52.344;14.518;2022-07-04T08:12:40;25.80;1.00
13694;DHT22;6919;52.344;14.518;2022-07-04T08:15:09;25.70;1.00
13694;DHT22;6919;52.344;14.518;2022-07-04T08:17:37;26.30;1.00
13694;DHT22;6919;52.344;14.518;2022-07-04T08:20:06;26.40;1.00
13694;DHT22;6919;52.344;14.518;2022-07-04T08:22:37;26.30;1.00
13694;DHT22;6919;52.344;14.518;2022-07-04T08:25:05;26.00;1.00
13694;DHT22;6919;52.344;14.518;2022-07-04T08:27:34;25.70;1.00
13694;DHT22;6919;52.344;14.518;2022-07-04T08:30:03;25.10;1.00
13694;DHT22;6919;52.344;14.518;2022-07-04T08:32:32;25.00;1.00
13694;DHT22;6919;52.344;14.518;2022-07-04T08:35:01;24.90;1.00
13694;DHT22;6919;52.344;14.518;2022-07-04T08:37:29;24.70;1.00
13694;DHT22;6919;52.344;14.518;2022-07-04T08:40:00;24.60;1.00
13694;DHT22;6919;52.344;14.518;2022-07-04T08:42:36;24.70;1.00
13694;DHT22;6919;52.344;14.518;2022-07-04T08:45:06;25.00;1.00
13694;DHT22;6919;52.344;14.518;2022-07-04T08:47:35;24.80;1.00
13694;DHT22;6919;52.344;14.518;2022-07-04T08:50:08;25.20;1.00
13694;DHT22;6919;52.344;14.518;2022-07-04T08:52:40;25.40;1.00
13694;DHT22;6919;52.344;14.518;2022-07-04T08:55:13;25.40;1.00
13694;DHT22;6919;52.344;14.518;2022-07-04T08:57:59;25.80;1.00
13694;DHT22;6919;52.344;14.518;2022-07-04T09:00:47;26.10;1.00
13694;DHT22;6919;52.344;14.518;2022-07-04T09:03:16;26.10;1.00
13694;DHT22;6919;52.344;14.518;2022-07-04T09:05:46;26.20;99.90
13694;DHT22;6919;52.344;14.518;2022-07-04T09:08:15;25.80;99.90
13694;DHT22;6919;52.344;14.518;2022-07-04T09:10:46;25.60;1.00
13694;DHT22;6919;52.344;14.518;2022-07-04T09:13:15;25.50;1.00
13694;DHT22;6919;52.344;14.518;2022-07-04T09:15:46;25.70;1.00
13694;DHT22;6919;52.344;14.518;2022-07-04T09:18:21;26.00;1.00
13694;DHT22;6919;52.344;14.518;2022-07-04T09:20:51;26.40;1.00
13694;DHT22;6919;52.344;14.518;2022-07-04T09:23:22;26.80;1.00
13694;DHT22;6919;52.344;14.518;2022-07-04T09:26:14;26.70;99.90
13694;DHT22;6919;52.344;14.518;2022-07-04T09:28:45;26.50;99.90
13694;DHT22;6919;52.344;14.518;2022-07-04T09:31:20;26.20;99.90
13694;DHT22;6919;52.344;14.518;2022-07-04T09:33:52;25.90;99.90
13694;DHT22;6919;52.344;14.518;2022-07-04T09:36:23;25.30;99.90
13694;DHT22;6919;52.344;14.518;2022-07-04T09:39:06;25.60;99.90
13694;DHT22;6919;52.344;14.518;2022-07-04T09:41:57;26.00;1.00
13694;DHT22;6919;52.344;14.518;2022-07-04T09:44:27;25.80;99.90
13694;DHT22;6919;52.344;14.518;2022-07-04T09:47:19;25.80;99.90
13694;DHT22;6919;52.344;14.518;2022-07-04T09:49:58;25.40;99.90
13694;DHT22;6919;52.344;14.518;2022-07-04T09:52:27;25.30;99.90
13694;DHT22;6919;52.344;14.518;2022-07-04T09:54:57;25.10;99.90
13694;DHT22;6919;52.344;14.518;2022-07-04T09:57:29;25.30;99.90
13694;DHT22;6919;52.344;14.518;2022-07-04T10:00:16;25.80;99.90
13694;DHT22;6919;52.344;14.518;2022-07-04T10:02:46;26.00;99.90
13694;DHT22;6919;52.344;14.518;2022-07-04T10:05:19;25.90;99.90
13694;DHT22;6919;52.344;14.518;2022-07-04T10:07:49;25.30;99.90
13694;DHT22;6919;52.344;14.518;2022-07-04T10:10:29;25.30;99.90
13694;DHT22;6919;52.344;14.518;2022-07-04T10:13:04;25.80;99.90
13694;DHT22;6919;52.344;14.518;2022-07-04T10:15:36;26.30;99.90
13694;DHT22;6919;52.344;14.518;2022-07-04T10:18:06;26.40;99.90
13694;DHT22;6919;52.344;14.518;2022-07-04T10:20:35;26.70;99.90
13694;DHT22;6919;52.344;14.518;2022-07-04T10:23:04;27.00;99.90
13694;DHT22;6919;52.344;14.518;2022-07-04T10:25:34;27.00;99.90
13694;DHT22;6919;52.344;14.518;2022-07-04T10:28:05;27.30;99.90
13694;DHT22;6919;52.344;14.518;2022-07-04T10:30:35;27.50;99.90
13694;DHT22;6919;52.344;14.518;2022-07-04T10:33:07;27.50;99.90
13694;DHT22;6919;52.344;14.518;2022-07-04T10:35:48;27.70;99.90
13694;DHT22;6919;52.344;14.518;2022-07-04T10:38:21;27.80;99.90
13694;DHT22;6919;52.344;14.518;2022-07-04T10:40:51;28.10;99.90
13694;DHT22;6919;52.344;14.518;2022-07-04T10:46:47;27.80;99.90
13694;DHT22;6919;52.344;14.518;2022-07-04T10:49:22;27.30;99.90
13694;DHT22;6919;52.344;14.518;2022-07-04T10:51:54;27.20;99.90
13694;DHT22;6919;52.344;14.518;2022-07-04T10:54:30;27.10;99.90
13694;DHT22;6919;52.344;14.518;2022-07-04T10:57:09;27.10;99.90
13694;DHT22;6919;52.344;14.518;2022-07-04T10:59:42;27.20;99.90
13694;DHT22;6919;52.344;14.518;2022-07-04T11:02:26;27.00;99.90
13694;DHT22;6919;52.344;14.518;2022-07-04T11:05:04;27.10;99.90
13694;DHT22;6919;52.344;14.518;2022-07-04T11:07:58;27.10;99.90
13694;DHT22;6919;52.344;14.518;2022-07-04T11:10:37;27.40;99.90
13694;DHT22;6919;52.344;14.518;2022-07-04T11:13:20;27.10;99.90
13694;DHT22;6919;52.344;14.518;2022-07-04T11:16:06;27.50;99.90
13694;DHT22;6919;52.344;14.518;2022-07-04T11:18:39;27.50;99.90
13694;DHT22;6919;52.344;14.518;2022-07-04T11:21:19;27.80;99.90
13694;DHT22;6919;52.344;14.518;2022-07-04T11:23:53;27.80;99.90
13694;DHT22;6919;52.344;14.518;2022-07-04T11:26:23;27.80;99.90
13694;DHT22;6919;52.344;14.518;2022-07-04T11:28:52;27.50;99.90
13694;DHT22;6919;52.344;14.518;2022-07-04T11:31:37;27.20;99.90
13694;DHT22;6919;52.344;14.518;2022-07-04T11:34:07;27.10;99.90
13694;DHT22;6919;52.344;14.518;2022-07-04T11:36:35;27.60;99.90
13694;DHT22;6919;52.344;14.518;2022-07-04T11:39:06;27.80;99.90
13694;DHT22;6919;52.344;14.518;2022-07-04T11:41:37;26.80;99.90
13694;DHT22;6919;52.344;14.518;2022-07-04T11:44:25;26.80;99.90
13694;DHT22;6919;52.344;14.518;2022-07-04T11:47:15;27.40;99.90
13694;DHT22;6919;52.344;14.518;2022-07-04T11:49:48;27.70;99.90
13694;DHT22;6919;52.344;14.518;2022-07-04T11:52:19;27.50;99.90
13694;DHT22;6919;52.344;14.518;2022-07-04T11:55:11;27.30;99.90
13694;DHT22;6919;52.344;14.518;2022-07-04T11:57:42;27.90;99.90
13694;DHT22;6919;52.344;14.518;2022-07-04T12:00:13;27.60;99.90
13694;DHT22;6919;52.344;14.518;2022-07-04T12:02:46;27.50;99.90
13694;DHT22;6919;52.344;14.518;2022-07-04T12:05:17;28.00;99.90
13694;DHT22;6919;52.344;14.518;2022-07-04T12:07:47;28.90;99.90
13694;DHT22;6919;52.344;14.518;2022-07-04T12:10:36;28.80;99.90
13694;DHT22;6919;52.344;14.518;2022-07-04T12:13:06;29.00;99.90
13694;DHT22;6919;52.344;14.518;2022-07-04T12:15:44;29.30;99.90
13694;DHT22;6919;52.344;14.518;2022-07-04T12:18:19;29.10;99.90
13694;DHT22;6919;52.344;14.518;2022-07-04T12:20:49;29.60;99.90
13694;DHT22;6919;52.344;14.518;2022-07-04T12:23:19;30.10;99.90
13694;DHT22;6919;52.344;14.518;2022-07-04T12:25:49;30.00;99.90
13694;DHT22;6919;52.344;14.518;2022-07-04T12:28:19;28.90;99.90
13694;DHT22;6919;52.344;14.518;2022-07-04T12:30:50;28.70;99.90
13694;DHT22;6919;52.344;14.518;2022-07-04T12:33:23;28.20;99.90
13694;DHT22;6919;52.344;14.518;2022-07-04T12:35:55;27.60;99.90
13694;DHT22;6919;52.344;14.518;2022-07-04T12:38:34;27.20;99.90
13694;DHT22;6919;52.344;14.518;2022-07-04T12:41:05;27.10;99.90
13694;DHT22;6919;52.344;14.518;2022-07-04T12:43:45;27.20;99.90
13694;DHT22;6919;52.344;14.518;2022-07-04T12:46:27;27.50;99.90
13694;DHT22;6919;52.344;14.518;2022-07-04T12:49:00;27.40;99.90
13694;DHT22;6919;52.344;14.518;2022-07-04T12:51:31;27.60;99.90
13694;DHT22;6919;52.344;14.518;2022-07-04T12:54:07;28.00;99.90
13694;DHT22;6919;52.344;14.518;2022-07-04T12:56:38;28.90;99.90
13694;DHT22;6919;52.344;14.518;2022-07-04T12:59:11;29.50;99.90
13694;DHT22;6919;52.344;14.518;2022-07-04T13:01:41;28.90;99.90
13694;DHT22;6919;52.344;14.518;2022-07-04T13:04:12;29.40;99.90
13694;DHT22;6919;52.344;14.518;2022-07-04T13:06:42;30.50;99.90
13694;DHT22;6919;52.344;14.518;2022-07-04T13:09:11;31.20;96.10
13694;DHT22;6919;52.344;14.518;2022-07-04T13:11:39;30.80;89.80
13694;DHT22;6919;52.344;14.518;2022-07-04T13:14:24;30.60;83.60
13694;DHT22;6919;52.344;14.518;2022-07-04T13:16:53;29.80;82.30
13694;DHT22;6919;52.344;14.518;2022-07-04T13:19:22;30.30;84.90
13694;DHT22;6919;52.344;14.518;2022-07-04T13:21:50;30.40;83.00
13694;DHT22;6919;52.344;14.518;2022-07-04T13:24:18;31.10;78.80
13694;DHT22;6919;52.344;14.518;2022-07-04T13:26:48;30.10;73.00
13694;DHT22;6919;52.344;14.518;2022-07-04T13:29:16;29.60;75.30
13694;DHT22;6919;52.344;14.518;2022-07-04T13:31:44;29.90;75.70
13694;DHT22;6919;52.344;14.518;2022-07-04T13:34:12;29.90;72.90
13694;DHT22;6919;52.344;14.518;2022-07-04T13:36:42;30.80;72.30
13694;DHT22;6919;52.344;14.518;2022-07-04T13:39:10;31.50;66.10
13694;DHT22;6919;52.344;14.518;2022-07-04T13:41:59;32.00;60.90
13694;DHT22;6919;52.344;14.518;2022-07-04T13:44:28;32.60;56.10
13694;DHT22;6919;52.344;14.518;2022-07-04T13:46:57;32.10;51.20
13694;DHT22;6919;52.344;14.518;2022-07-04T13:49:25;32.00;48.40
13694;DHT22;6919;52.344;14.518;2022-07-04T13:51:55;32.00;47.20
13694;DHT22;6919;52.344;14.518;2022-07-04T13:54:23;32.20;47.10
13694;DHT22;6919;52.344;14.518;2022-07-04T13:56:51;31.00;46.10
13694;DHT22;6919;52.344;14.518;2022-07-04T13:59:19;30.70;48.00
13694;DHT22;6919;52.344;14.518;2022-07-04T14:01:47;30.90;48.50
13694;DHT22;6919;52.344;14.518;2022-07-04T14:04:17;31.40;49.70
13694;DHT22;6919;52.344;14.518;2022-07-04T14:06:45;32.00;47.70
13694;DHT22;6919;52.344;14.518;2022-07-04T14:09:14;32.50;41.80
13694;DHT22;6919;52.344;14.518;2022-07-04T14:11:44;31.80;38.90
13694;DHT22;6919;52.344;14.518;2022-07-04T14:14:12;31.00;39.30
13694;DHT22;6919;52.344;14.518;2022-07-04T14:16:40;30.50;42.40
13694;DHT22;6919;52.344;14.518;2022-07-04T14:19:08;30.90;42.80
13694;DHT22;6919;52.344;14.518;2022-07-04T14:21:37;31.50;41.80
13694;DHT22;6919;52.344;14.518;2022-07-04T14:24:06;31.70;38.80
13694;DHT22;6919;52.344;14.518;2022-07-04T14:26:35;31.50;37.30
13694;DHT22;6919;52.344;14.518;2022-07-04T14:29:03;31.60;37.60
13694;DHT22;6919;52.344;14.518;2022-07-04T14:31:32;31.40;37.30
13694;DHT22;6919;52.344;14.518;2022-07-04T14:34:00;31.20;37.40
13694;DHT22;6919;52.344;14.518;2022-07-04T14:36:31;32.20;37.10
13694;DHT22;6919;52.344;14.518;2022-07-04T14:38:59;33.00;33.60
13694;DHT22;6919;52.344;14.518;2022-07-04T14:41:31;33.30;29.90
13694;DHT22;6919;52.344;14.518;2022-07-04T14:44:01;32.80;28.80
13694;DHT22;6919;52.344;14.518;2022-07-04T14:46:29;33.10;29.70
13694;DHT22;6919;52.344;14.518;2022-07-04T14:48:58;33.00;27.60
13694;DHT22;6919;52.344;14.518;2022-07-04T14:51:26;32.20;26.30
13694;DHT22;6919;52.344;14.518;2022-07-04T14:53:54;31.10;25.10
13694;DHT22;6919;52.344;14.518;2022-07-04T14:56:23;31.00;26.50
13694;DHT22;6919;52.344;14.518;2022-07-04T14:58:51;31.60;27.70
13694;DHT22;6919;52.344;14.518;2022-07-04T15:01:21;31.70;27.20
13694;DHT22;6919;52.344;14.518;2022-07-04T15:03:49;31.40;25.70
13694;DHT22;6919;52.344;14.518;2022-07-04T15:06:17;30.90;26.50
13694;DHT22;6919;52.344;14.518;2022-07-04T15:08:46;30.30;26.80
13694;DHT22;6919;52.344;14.518;2022-07-04T15:11:14;29.70;27.60
13694;DHT22;6919;52.344;14.518;2022-07-04T15:13:46;28.70;28.60
13694;DHT22;6919;52.344;14.518;2022-07-04T15:16:15;28.90;32.50
13694;DHT22;6919;52.344;14.518;2022-07-04T15:18:50;29.30;32.80
13694;DHT22;6919;52.344;14.518;2022-07-04T15:21:19;29.40;32.30
13694;DHT22;6919;52.344;14.518;2022-07-04T15:24:05;29.90;32.50
13694;DHT22;6919;52.344;14.518;2022-07-04T15:26:42;29.90;30.50
13694;DHT22;6919;52.344;14.518;2022-07-04T15:29:13;29.60;30.00
13694;DHT22;6919;52.344;14.518;2022-07-04T15:31:44;29.00;29.90
13694;DHT22;6919;52.344;14.518;2022-07-04T15:34:18;28.90;31.70
13694;DHT22;6919;52.344;14.518;2022-07-04T15:36:47;28.70;33.70
13694;DHT22;6919;52.344;14.518;2022-07-04T15:39:16;29.10;34.10
13694;DHT22;6919;52.344;14.518;2022-07-04T15:41:45;29.50;35.30
13694;DHT22;6919;52.344;14.518;2022-07-04T15:44:14;29.30;32.90
13694;DHT22;6919;52.344;14.518;2022-07-04T15:46:43;29.40;32.10
13694;DHT22;6919;52.344;14.518;2022-07-04T15:49:30;29.30;32.40
13694;DHT22;6919;52.344;14.518;2022-07-04T15:51:58;29.30;32.00
13694;DHT22;6919;52.344;14.518;2022-07-04T15:54:27;29.00;50.60
13694;DHT22;6919;52.344;14.518;2022-07-04T15:56:55;28.80;32.90
13694;DHT22;6919;52.344;14.518;2022-07-04T15:59:23;28.80;34.80
13694;DHT22;6919;52.344;14.518;2022-07-04T16:01:52;28.60;34.50
13694;DHT22;6919;52.344;14.518;2022-07-04T16:04:21;28.60;34.80